Time;durP1;ratioP1;P1;durP2;ratioP2;P2;SDS_P1;SDS_P2;PMS_P1;PMS_P2;Temp;Humidity;BMP_temperature;BMP_pressure;BME280_temperature;BME280_humidity;BME280_pressure;Samples;Min_cycle;Max_cycle;Signal;HPM_P1;HPM_P2
2023/09/08 00:00:42;;;;;;;6.77;5.90;;;15.80;99.90;;;;;;5009901;28;20839;-64
2023/09/08 00:03:09;;;;;;;6.83;6.30;;;15.70;99.90;;;;;;5009899;28;20541;-64
2023/09/08 00:05:36;;;;;;;5.77;5.23;;;15.70;99.90;;;;;;5009810;28;20457;-64
2023/09/08 00:08:03;;;;;;;6.37;5.87;;;15.60;99.90;;;;;;5009579;28;20448;-64
2023/09/08 00:10:30;;;;;;;5.60;5.20;;;15.60;99.90;;;;;;5009851;28;20476;-64
2023/09/08 00:12:58;;;;;;;7.90;6.80;;;15.60;99.90;;;;;;5009667;28;20491;-64
2023/09/08 00:15:25;;;;;;;6.50;5.87;;;15.60;99.90;;;;;;5009859;28;20452;-64
2023/09/08 00:17:52;;;;;;;5.80;5.30;;;15.60;99.90;;;;;;5009097;28;20534;-64
2023/09/08 00:20:19;;;;;;;7.07;6.47;;;15.50;99.90;;;;;;5009294;28;20483;-64
2023/09/08 00:22:46;;;;;;;6.53;6.03;;;15.50;99.90;;;;;;5009763;28;20546;-64
2023/09/08 00:25:13;;;;;;;7.20;5.87;;;15.50;99.90;;;;;;5009791;28;20461;-64
2023/09/08 00:27:39;;;;;;;6.03;5.43;;;15.50;99.90;;;;;;5008934;28;20446;-64
2023/09/08 00:30:09;;;;;;;6.10;5.60;;;15.50;99.90;;;;;;5009518;28;20479;-64
2023/09/08 00:32:36;;;;;;;6.03;5.43;;;15.40;99.90;;;;;;5008161;28;20576;-64
2023/09/08 00:35:03;;;;;;;6.07;5.50;;;15.40;99.90;;;;;;5010048;28;20453;-64
2023/09/08 00:37:29;;;;;;;5.83;5.23;;;15.40;99.90;;;;;;5008890;28;20447;-64
2023/09/08 00:39:56;;;;;;;6.57;6.00;;;15.40;99.90;;;;;;5009259;28;20476;-64
2023/09/08 00:42:23;;;;;;;6.13;5.60;;;15.40;99.90;;;;;;5009271;28;20451;-64
2023/09/08 00:44:50;;;;;;;5.97;5.47;;;15.30;99.90;;;;;;5009128;28;20840;-64
2023/09/08 00:47:18;;;;;;;6.07;5.57;;;15.30;99.90;;;;;;5008689;28;20453;-64
2023/09/08 00:49:46;;;;;;;7.80;7.10;;;15.30;99.90;;;;;;5009306;28;20497;-64
2023/09/08 00:52:13;;;;;;;6.33;5.83;;;15.30;99.90;;;;;;5008229;28;20454;-64
2023/09/08 00:54:39;;;;;;;5.67;4.90;;;15.30;99.90;;;;;;5009148;28;20514;-64
2023/09/08 00:57:07;;;;;;;7.60;6.90;;;15.20;99.90;;;;;;5008651;28;20459;-64
2023/09/08 00:59:36;;;;;;;6.13;5.20;;;15.20;99.90;;;;;;5009284;28;20477;-64
2023/09/08 01:02:03;;;;;;;5.80;5.40;;;15.20;99.90;;;;;;5008867;28;20458;-64
2023/09/08 01:04:33;;;;;;;8.00;7.20;;;15.20;99.90;;;;;;5009074;28;20529;-64
2023/09/08 01:07:00;;;;;;;5.73;5.23;;;15.10;99.90;;;;;;5008350;28;20889;-64
2023/09/08 01:09:28;;;;;;;6.80;6.23;;;15.10;99.90;;;;;;5009046;28;20478;-64
2023/09/08 01:12:00;;;;;;;6.77;6.17;;;15.10;99.90;;;;;;5008610;28;20543;-64
2023/09/08 01:14:28;;;;;;;6.10;5.60;;;15.00;99.90;;;;;;5009114;28;20971;-64
2023/09/08 01:16:55;;;;;;;6.37;5.80;;;15.00;99.90;;;;;;5008187;28;20459;-64
2023/09/08 01:19:22;;;;;;;7.40;6.80;;;14.90;99.90;;;;;;5008705;28;20482;-64
2023/09/08 01:22:21;;;;;;;7.13;6.47;;;14.90;99.90;;;;;;5008745;28;20456;-64
2023/09/08 01:25:22;;;;;;;5.43;5.03;;;14.90;99.90;;;;;;5009222;28;20565;-64
2023/09/08 01:27:51;;;;;;;6.47;5.97;;;14.90;99.90;;;;;;5008244;28;20460;-64
2023/09/08 01:30:19;;;;;;;6.77;6.13;;;14.80;99.90;;;;;;5008352;28;20483;-64
2023/09/08 01:32:47;;;;;;;6.80;6.20;;;14.80;99.90;;;;;;5006960;28;20491;-64
2023/09/08 01:35:14;;;;;;;6.47;5.87;;;14.80;99.90;;;;;;5008644;28;20527;-64
2023/09/08 01:37:42;;;;;;;6.73;6.13;;;14.70;99.90;;;;;;5007871;28;20461;-64
2023/09/08 01:40:10;;;;;;;6.67;6.17;;;14.70;99.90;;;;;;5008628;28;20479;-64
2023/09/08 01:42:39;;;;;;;6.87;6.37;;;14.70;99.90;;;;;;5008842;28;20453;-64
2023/09/08 01:45:06;;;;;;;8.60;6.33;;;14.60;99.90;;;;;;5008560;28;20570;-64
2023/09/08 01:47:34;;;;;;;6.30;5.80;;;14.70;99.90;;;;;;5007815;28;20454;-65
2023/09/08 01:50:01;;;;;;;6.10;5.63;;;14.60;99.90;;;;;;5008882;28;20484;-64
2023/09/08 01:52:27;;;;;;;5.73;5.30;;;14.60;99.90;;;;;;5008651;28;20535;-64
2023/09/08 01:54:54;;;;;;;6.67;6.17;;;14.60;99.90;;;;;;5008686;28;20947;-64
2023/09/08 01:57:21;;;;;;;6.50;6.00;;;14.60;99.90;;;;;;5007603;28;20491;-64
2023/09/08 01:59:49;;;;;;;6.93;6.23;;;14.50;99.90;;;;;;5008691;28;20482;-64
2023/09/08 02:02:16;;;;;;;5.80;5.23;;;14.50;99.90;;;;;;5009376;28;20460;-64
2023/09/08 02:04:43;;;;;;;6.33;5.73;;;14.50;99.90;;;;;;5012703;28;20485;-64
2023/09/08 02:07:10;;;;;;;7.40;6.70;;;14.50;99.90;;;;;;5011688;28;20462;-64
2023/09/08 02:09:39;;;;;;;7.60;6.90;;;14.40;99.90;;;;;;5012137;28;20474;-64
2023/09/08 02:12:07;;;;;;;6.30;5.80;;;14.40;99.90;;;;;;5012116;28;20943;-64
2023/09/08 02:14:33;;;;;;;7.20;6.50;;;14.40;99.90;;;;;;5012435;28;20581;-64
2023/09/08 02:17:02;;;;;;;8.43;7.83;;;14.40;99.90;;;;;;5035942;23;20484;-65
2023/09/08 02:19:28;;;;;;;6.63;6.07;;;14.40;99.90;;;;;;5031972;28;20934;-65
2023/09/08 02:21:55;;;;;;;6.33;5.73;;;14.40;99.90;;;;;;5031673;28;20463;-65
2023/09/08 02:24:22;;;;;;;7.43;6.40;;;14.30;99.90;;;;;;5031592;28;20451;-65
2023/09/08 02:26:49;;;;;;;6.93;5.63;;;14.30;99.90;;;;;;5030766;28;20449;-65
2023/09/08 02:29:16;;;;;;;6.33;5.83;;;14.30;99.90;;;;;;5031397;28;20449;-65
2023/09/08 02:31:43;;;;;;;6.20;5.70;;;14.20;99.90;;;;;;5031241;28;20962;-65
2023/09/08 02:36:47;;;;;;;5.50;5.10;;;14.20;99.90;;;;;;5094190;22;20491;-65
2023/09/08 02:39:14;;;;;;;8.47;7.23;;;14.20;99.90;;;;;;4989938;28;20506;-65
2023/09/08 02:41:41;;;;;;;6.40;5.73;;;14.20;99.90;;;;;;4994833;28;20454;-65
2023/09/08 02:44:08;;;;;;;6.50;6.00;;;14.10;99.90;;;;;;4995151;28;20830;-65
2023/09/08 02:46:34;;;;;;;6.30;5.67;;;14.10;99.90;;;;;;4994764;28;20474;-65
2023/09/08 02:49:02;;;;;;;7.60;5.47;;;14.10;99.90;;;;;;4995025;28;20439;-65
2023/09/08 02:51:29;;;;;;;7.60;5.80;;;14.00;99.90;;;;;;4994965;28;20448;-65
2023/09/08 02:53:57;;;;;;;7.53;6.77;;;14.00;99.90;;;;;;4994688;28;20493;-65
2023/09/08 02:56:24;;;;;;;6.93;5.73;;;14.00;99.90;;;;;;4994670;28;20473;-65
2023/09/08 02:58:50;;;;;;;7.10;6.50;;;14.00;99.90;;;;;;4994741;28;20490;-65
2023/09/08 03:01:20;;;;;;;6.53;6.13;;;13.90;99.90;;;;;;4994824;28;20550;-65
2023/09/08 03:03:47;;;;;;;6.10;5.50;;;13.90;99.90;;;;;;4994696;28;20543;-65
2023/09/08 03:06:16;;;;;;;5.70;5.30;;;13.90;99.90;;;;;;4994167;28;20560;-65
2023/09/08 03:08:43;;;;;;;5.97;5.53;;;13.90;99.90;;;;;;4994480;28;20452;-65
2023/09/08 03:11:11;;;;;;;7.27;6.57;;;13.90;99.90;;;;;;4994721;28;20479;-65
2023/09/08 03:13:38;;;;;;;6.60;6.00;;;13.80;99.90;;;;;;4993675;28;20485;-65
2023/09/08 03:16:06;;;;;;;12.60;5.67;;;13.80;99.90;;;;;;4993968;28;20884;-65
2023/09/08 03:18:33;;;;;;;8.23;6.33;;;13.70;99.90;;;;;;4994392;28;20449;-64
2023/09/08 03:21:03;;;;;;;5.83;5.33;;;13.70;99.90;;;;;;4994227;28;20800;-65
2023/09/08 03:23:30;;;;;;;5.87;5.40;;;13.70;99.90;;;;;;4994523;28;20509;-65
2023/09/08 03:25:56;;;;;;;7.13;6.53;;;13.70;99.90;;;;;;4992981;28;20551;-65
2023/09/08 03:28:25;;;;;;;6.20;5.80;;;13.60;99.90;;;;;;4994435;28;20447;-65
2023/09/08 03:30:51;;;;;;;5.67;5.00;;;13.60;99.90;;;;;;4994336;28;20546;-65
2023/09/08 03:33:18;;;;;;;5.90;5.50;;;13.60;99.90;;;;;;4993988;28;20485;-65
2023/09/08 03:35:45;;;;;;;6.93;6.33;;;13.50;99.90;;;;;;4993713;28;20489;-64
2023/09/08 03:38:12;;;;;;;6.63;6.03;;;13.60;99.90;;;;;;4994115;28;20443;-65
2023/09/08 03:40:39;;;;;;;8.07;7.47;;;13.50;99.90;;;;;;4993930;28;20825;-65
2023/09/08 03:43:05;;;;;;;7.73;6.77;;;13.50;99.90;;;;;;4993913;28;21009;-65
2023/09/08 03:45:34;;;;;;;7.13;6.43;;;13.50;99.90;;;;;;4993692;28;20497;-65
2023/09/08 03:48:00;;;;;;;6.20;5.80;;;13.50;99.90;;;;;;4993834;28;20453;-64
2023/09/08 03:50:27;;;;;;;6.73;6.07;;;13.50;99.90;;;;;;4993919;28;20469;-64
2023/09/08 03:52:54;;;;;;;6.30;5.70;;;13.50;99.90;;;;;;4993747;28;20447;-65
2023/09/08 03:55:21;;;;;;;7.07;6.10;;;13.50;99.90;;;;;;4993207;28;20571;-65
2023/09/08 03:57:48;;;;;;;6.87;6.37;;;13.50;99.90;;;;;;4993897;28;20447;-65
2023/09/08 04:00:19;;;;;;;6.00;5.50;;;13.40;99.90;;;;;;4993658;28;20960;-65
2023/09/08 04:02:47;;;;;;;6.20;5.70;;;13.40;99.90;;;;;;4993729;28;20489;-64
2023/09/08 04:05:14;;;;;;;6.60;6.10;;;13.40;99.90;;;;;;4993179;28;21014;-65
2023/09/08 04:07:41;;;;;;;7.70;7.10;;;13.40;99.90;;;;;;4993449;28;20455;-65
2023/09/08 04:10:09;;;;;;;6.97;6.37;;;13.30;99.90;;;;;;4993346;28;20470;-65
2023/09/08 04:12:36;;;;;;;6.43;5.90;;;13.30;99.90;;;;;;4993527;28;20530;-65
2023/09/08 04:15:03;;;;;;;8.00;7.30;;;13.30;99.90;;;;;;4993037;28;20495;-65
2023/09/08 04:17:30;;;;;;;8.10;7.30;;;13.30;99.90;;;;;;4993193;28;20542;-65
2023/09/08 04:19:58;;;;;;;6.83;6.20;;;13.20;99.90;;;;;;4992879;28;20819;-65
2023/09/08 04:22:24;;;;;;;6.67;5.97;;;13.20;99.90;;;;;;4993058;28;20542;-64
2023/09/08 04:24:53;;;;;;;7.93;7.20;;;13.20;99.90;;;;;;4992788;28;20474;-65
2023/09/08 04:27:19;;;;;;;6.43;5.93;;;13.20;99.90;;;;;;4993256;28;20454;-65
2023/09/08 04:29:46;;;;;;;6.60;6.00;;;13.20;99.90;;;;;;4993237;28;20800;-65
2023/09/08 04:32:13;;;;;;;5.97;5.57;;;13.10;99.90;;;;;;4993023;28;20454;-65
2023/09/08 04:34:41;;;;;;;6.60;6.00;;;13.10;99.90;;;;;;4992497;28;20483;-65
2023/09/08 04:37:10;;;;;;;6.50;5.90;;;13.10;99.90;;;;;;4992709;28;20450;-65
2023/09/08 04:39:37;;;;;;;6.63;5.77;;;13.10;99.90;;;;;;4992833;28;20447;-65
2023/09/08 04:42:05;;;;;;;7.50;6.80;;;13.10;99.90;;;;;;4992926;28;20811;-65
2023/09/08 04:44:32;;;;;;;7.40;6.70;;;13.00;99.90;;;;;;4992386;28;20450;-65
2023/09/08 04:46:59;;;;;;;8.03;7.00;;;13.10;99.90;;;;;;4992748;28;20458;-65
2023/09/08 04:49:26;;;;;;;7.17;6.37;;;13.00;99.90;;;;;;4992641;28;20450;-65
2023/09/08 04:51:52;;;;;;;6.83;6.20;;;13.00;99.90;;;;;;4992846;28;20449;-65
2023/09/08 04:54:22;;;;;;;7.13;6.53;;;12.90;99.90;;;;;;4992459;28;20482;-65
2023/09/08 04:56:49;;;;;;;6.50;5.90;;;13.00;99.90;;;;;;4992626;28;20478;-65
2023/09/08 04:59:15;;;;;;;6.97;6.27;;;12.90;99.90;;;;;;4992615;28;20533;-64
2023/09/08 05:01:43;;;;;;;6.67;6.17;;;12.90;99.90;;;;;;4992388;28;20832;-64
2023/09/08 05:04:10;;;;;;;6.63;6.13;;;12.90;99.90;;;;;;4992401;28;20941;-65
2023/09/08 05:06:37;;;;;;;6.80;6.10;;;12.90;99.90;;;;;;4992272;28;20538;-65
2023/09/08 05:09:04;;;;;;;7.23;6.37;;;12.90;99.90;;;;;;4992514;28;20457;-64
2023/09/08 05:11:32;;;;;;;7.40;6.87;;;12.90;99.90;;;;;;4992511;28;20447;-65
2023/09/08 05:13:59;;;;;;;7.73;7.00;;;12.90;99.90;;;;;;4992172;28;20485;-65
2023/09/08 05:16:36;;;;;;;6.80;6.20;;;12.80;99.90;;;;;;4991870;28;20471;-65
2023/09/08 05:19:03;;;;;;;6.87;6.27;;;12.80;99.90;;;;;;4992473;28;20470;-65
2023/09/08 05:21:31;;;;;;;6.70;6.17;;;12.90;99.90;;;;;;4992192;28;20538;-64
2023/09/08 05:23:58;;;;;;;6.93;6.33;;;12.80;99.90;;;;;;4992294;28;20439;-65
2023/09/08 05:26:25;;;;;;;9.13;8.43;;;12.90;99.90;;;;;;4991839;28;20541;-65
2023/09/08 05:28:53;;;;;;;7.00;6.30;;;12.90;99.90;;;;;;4992078;28;20474;-65
2023/09/08 05:31:20;;;;;;;10.70;7.40;;;12.90;99.90;;;;;;4992004;28;20446;-64
2023/09/08 05:33:46;;;;;;;8.17;7.40;;;12.90;99.90;;;;;;4992152;28;20462;-64
2023/09/08 05:36:13;;;;;;;6.20;5.60;;;12.90;99.90;;;;;;4991678;28;20482;-65
2023/09/08 05:38:40;;;;;;;6.53;6.03;;;12.90;99.90;;;;;;4991509;28;20453;-65
2023/09/08 05:41:07;;;;;;;6.30;5.77;;;12.90;99.90;;;;;;4992076;28;20450;-65
2023/09/08 05:43:34;;;;;;;8.10;7.40;;;12.90;99.90;;;;;;4991893;28;20453;-64
2023/09/08 05:46:02;;;;;;;7.60;6.80;;;12.90;99.90;;;;;;4991769;28;20467;-64
2023/09/08 05:48:29;;;;;;;6.73;6.23;;;12.90;99.90;;;;;;4992075;28;20447;-65
2023/09/08 05:50:56;;;;;;;7.23;6.63;;;12.90;99.90;;;;;;4992018;28;20453;-65
2023/09/08 05:53:22;;;;;;;6.83;6.33;;;12.90;99.90;;;;;;4992177;28;20478;-64
2023/09/08 05:55:49;;;;;;;7.20;6.70;;;12.90;99.90;;;;;;4991460;28;20566;-65
2023/09/08 05:58:16;;;;;;;9.67;6.67;;;12.90;99.90;;;;;;4991822;28;20530;-65
2023/09/08 06:00:43;;;;;;;7.10;6.40;;;13.00;99.90;;;;;;4991730;28;21031;-65
2023/09/08 06:03:11;;;;;;;7.80;7.10;;;13.00;99.90;;;;;;4991960;28;20446;-65
2023/09/08 06:05:38;;;;;;;9.63;6.70;;;13.00;99.90;;;;;;4991427;28;20469;-65
2023/09/08 06:08:05;;;;;;;8.20;7.53;;;13.00;99.90;;;;;;4991865;28;20832;-65
2023/09/08 06:10:32;;;;;;;7.57;6.80;;;13.10;99.90;;;;;;4991698;28;20482;-65
2023/09/08 06:12:59;;;;;;;8.40;7.70;;;13.10;99.90;;;;;;4991712;28;20528;-65
2023/09/08 06:15:26;;;;;;;7.87;7.20;;;13.10;99.90;;;;;;4991494;28;20501;-65
2023/09/08 06:17:53;;;;;;;7.67;7.00;;;13.20;99.90;;;;;;4991913;28;21018;-65
2023/09/08 06:20:21;;;;;;;8.23;7.60;;;13.20;99.90;;;;;;4991861;28;20443;-65
2023/09/08 06:22:48;;;;;;;6.70;6.17;;;13.30;99.90;;;;;;4991759;28;20458;-65
2023/09/08 06:25:15;;;;;;;7.20;6.60;;;13.30;99.90;;;;;;4991279;28;20609;-65
2023/09/08 06:27:42;;;;;;;7.37;6.67;;;13.40;99.90;;;;;;4991616;28;20447;-65
2023/09/08 06:30:09;;;;;;;7.63;6.70;;;13.40;99.90;;;;;;4991724;28;20442;-65
2023/09/08 06:32:36;;;;;;;6.90;6.30;;;13.50;99.90;;;;;;4991685;28;20529;-65
2023/09/08 06:35:04;;;;;;;8.03;7.23;;;13.50;99.90;;;;;;4991095;28;20494;-65
2023/09/08 06:37:36;;;;;;;7.70;7.00;;;13.60;99.90;;;;;;4991495;28;20458;-65
2023/09/08 06:40:03;;;;;;;7.33;6.70;;;13.70;99.90;;;;;;4991465;28;20526;-65
2023/09/08 06:42:30;;;;;;;7.87;7.27;;;13.70;99.90;;;;;;4991414;28;20537;-65
2023/09/08 06:44:56;;;;;;;7.43;6.70;;;13.80;99.90;;;;;;4991221;28;20834;-65
2023/09/08 06:47:23;;;;;;;7.33;6.53;;;14.00;99.90;;;;;;4991698;28;20447;-65
2023/09/08 06:49:50;;;;;;;7.40;6.80;;;14.20;99.90;;;;;;4992975;28;20446;-65
2023/09/08 06:52:17;;;;;;;8.77;7.97;;;14.50;99.90;;;;;;4994806;28;20538;-65
2023/09/08 06:54:46;;;;;;;7.30;6.53;;;14.70;99.90;;;;;;4994596;28;20580;-65
2023/09/08 06:57:13;;;;;;;8.83;7.77;;;15.00;99.90;;;;;;4994981;28;20456;-65
2023/09/08 06:59:40;;;;;;;7.77;6.97;;;15.20;99.90;;;;;;4994761;28;20539;-66
2023/09/08 07:02:08;;;;;;;8.67;7.87;;;15.50;99.90;;;;;;4994775;28;20834;-65
2023/09/08 07:04:35;;;;;;;7.53;6.93;;;15.70;99.90;;;;;;4994283;28;20445;-66
2023/09/08 07:07:04;;;;;;;8.20;7.50;;;15.90;99.90;;;;;;4994511;28;20448;-65
2023/09/08 07:09:31;;;;;;;7.77;7.07;;;16.10;99.90;;;;;;4994829;28;20450;-66
2023/09/08 07:11:59;;;;;;;8.07;7.27;;;16.30;99.90;;;;;;4994643;28;20452;-65
2023/09/08 07:14:26;;;;;;;8.80;8.00;;;16.50;99.90;;;;;;4994149;28;20493;-66
2023/09/08 07:16:53;;;;;;;8.03;7.47;;;16.70;99.90;;;;;;4994316;28;20505;-65
2023/09/08 07:19:19;;;;;;;7.50;6.90;;;16.90;99.90;;;;;;4994376;28;20471;-65
2023/09/08 07:21:46;;;;;;;7.70;6.97;;;17.00;99.90;;;;;;4994268;28;20454;-66
2023/09/08 07:24:13;;;;;;;8.70;7.83;;;17.20;99.90;;;;;;4994272;28;20454;-65
2023/09/08 07:26:40;;;;;;;8.90;7.77;;;17.40;99.90;;;;;;4994135;28;20474;-66
2023/09/08 07:29:08;;;;;;;8.27;7.47;;;17.50;99.90;;;;;;4994253;28;20455;-66
2023/09/08 07:31:35;;;;;;;7.97;7.13;;;17.60;99.90;;;;;;4994232;28;20538;-66
2023/09/08 07:34:02;;;;;;;8.30;7.50;;;17.80;99.90;;;;;;4994061;28;20454;-66
2023/09/08 07:36:28;;;;;;;6.90;6.40;;;17.90;99.90;;;;;;4993505;28;21008;-65
2023/09/08 07:38:55;;;;;;;7.50;6.83;;;18.00;99.90;;;;;;4994182;28;20458;-66
2023/09/08 07:41:22;;;;;;;8.70;7.80;;;18.20;99.90;;;;;;4994032;28;20453;-66
2023/09/08 07:43:50;;;;;;;7.40;6.80;;;18.30;99.90;;;;;;4993950;28;20456;-65
2023/09/08 07:46:19;;;;;;;7.47;6.97;;;18.40;99.90;;;;;;4993566;28;20558;-66
2023/09/08 07:48:45;;;;;;;8.63;7.63;;;18.50;99.90;;;;;;4993730;28;20449;-66
2023/09/08 07:51:12;;;;;;;8.50;7.70;;;18.60;99.90;;;;;;4993950;28;20447;-66
2023/09/08 07:53:39;;;;;;;8.63;7.67;;;18.70;99.90;;;;;;4993701;28;20453;-66
2023/09/08 07:56:06;;;;;;;8.13;7.37;;;18.90;99.90;;;;;;4993423;28;21134;-66
2023/09/08 07:58:33;;;;;;;7.77;7.13;;;19.00;99.90;;;;;;4993652;28;20457;-65
2023/09/08 08:01:00;;;;;;;8.93;8.13;;;19.10;99.90;;;;;;4991192;28;20956;-66
2023/09/08 08:03:28;;;;;;;7.87;7.20;;;19.30;99.90;;;;;;4992990;28;20454;-66
2023/09/08 08:05:55;;;;;;;8.00;7.20;;;19.40;99.90;;;;;;4992930;28;20518;-65
2023/09/08 08:08:22;;;;;;;8.83;8.03;;;19.50;99.90;;;;;;4993154;28;20447;-66
2023/09/08 08:10:48;;;;;;;8.03;7.33;;;19.60;99.90;;;;;;4993114;28;20451;-66
2023/09/08 08:13:15;;;;;;;7.33;6.83;;;19.80;99.90;;;;;;4993087;28;20460;-66
2023/09/08 08:15:43;;;;;;;7.50;6.90;;;19.90;99.90;;;;;;4992538;28;20577;-66
2023/09/08 08:18:10;;;;;;;7.63;7.03;;;20.00;99.90;;;;;;4992852;28;20447;-66
2023/09/08 08:20:39;;;;;;;7.77;7.17;;;20.10;99.90;;;;;;4991947;28;20450;-66
2023/09/08 08:23:06;;;;;;;8.47;7.67;;;20.10;99.90;;;;;;4992597;28;20483;-66
2023/09/08 08:25:34;;;;;;;7.90;7.23;;;20.20;99.90;;;;;;4992185;28;20822;-66
2023/09/08 08:28:01;;;;;;;8.10;7.50;;;20.30;99.90;;;;;;4992423;28;20536;-66
2023/09/08 08:30:28;;;;;;;7.70;7.10;;;20.50;99.90;;;;;;4992394;28;20444;-66
2023/09/08 08:32:55;;;;;;;8.10;7.40;;;20.60;99.90;;;;;;4992463;28;20456;-66
2023/09/08 08:35:22;;;;;;;8.23;7.53;;;20.70;99.90;;;;;;4991858;28;20508;-66
2023/09/08 08:37:50;;;;;;;8.83;8.13;;;20.80;99.90;;;;;;4992237;28;20456;-66
2023/09/08 08:40:17;;;;;;;8.73;8.03;;;20.90;99.90;;;;;;4992090;28;20453;-66
2023/09/08 08:42:44;;;;;;;9.00;8.30;;;21.00;99.90;;;;;;4991805;28;20449;-66
2023/09/08 08:45:12;;;;;;;7.33;6.83;;;21.20;99.90;;;;;;4991599;28;20558;-66
2023/09/08 08:47:40;;;;;;;9.83;8.97;;;21.30;99.90;;;;;;4992268;28;20454;-66
2023/09/08 08:50:11;;;;;;;7.50;6.90;;;21.50;99.90;;;;;;4992035;28;20959;-66
2023/09/08 08:52:38;;;;;;;7.30;6.70;;;21.50;99.90;;;;;;5033972;23;21020;-65
2023/09/08 08:55:08;;;;;;;12.00;8.00;;;21.60;99.90;;;;;;5030901;28;20893;-65
2023/09/08 08:57:37;;;;;;;7.13;6.63;;;21.80;99.90;;;;;;5031749;28;20460;-65
2023/09/08 09:00:07;;;;;;;8.00;7.40;;;21.90;99.90;;;;;;5031606;28;20530;-65
2023/09/08 09:02:34;;;;;;;8.10;7.43;;;22.00;99.90;;;;;;5031677;28;20558;-65
2023/09/08 09:05:02;;;;;;;8.07;7.47;;;22.10;99.90;;;;;;5031324;28;20445;-65
2023/09/08 09:07:28;;;;;;;7.27;6.73;;;22.20;99.90;;;;;;5031506;28;20456;-65
2023/09/08 09:09:56;;;;;;;8.07;7.50;;;22.40;99.90;;;;;;5031708;28;20452;-65
2023/09/08 09:12:24;;;;;;;6.97;6.47;;;22.50;99.90;;;;;;5030382;28;20548;-65
2023/09/08 09:14:54;;;;;;;6.20;5.80;;;22.70;99.90;;;;;;5031313;28;20817;-65
2023/09/08 09:17:21;;;;;;;7.20;6.63;;;22.80;99.90;;;;;;5031508;28;20457;-65
2023/09/08 09:19:48;;;;;;;7.57;7.03;;;22.90;99.90;;;;;;5031634;28;20540;-65
2023/09/08 09:22:14;;;;;;;6.37;5.87;;;23.00;99.90;;;;;;5031063;28;20461;-66
2023/09/08 09:24:43;;;;;;;7.60;6.80;;;23.10;99.90;;;;;;5031029;28;20635;-65
2023/09/08 09:27:10;;;;;;;7.20;6.67;;;23.20;99.90;;;;;;5031524;28;20819;-65
2023/09/08 09:29:47;;;;;;;7.40;6.03;;;23.30;99.90;;;;;;5031226;28;20449;-65
2023/09/08 09:32:14;;;;;;;6.60;6.17;;;23.40;99.90;;;;;;5031431;28;20460;-65
2023/09/08 09:34:50;;;;;;;7.43;6.83;;;23.50;99.90;;;;;;5031083;28;20580;-65
2023/09/08 09:37:17;;;;;;;7.00;6.23;;;23.60;99.90;;;;;;5031339;28;20786;-65
2023/09/08 09:39:48;;;;;;;6.67;6.17;;;23.70;99.70;;;;;;5031498;28;20867;-65
2023/09/08 09:42:15;;;;;;;6.47;5.97;;;23.70;99.90;;;;;;5030917;28;21054;-65
2023/09/08 09:44:44;;;;;;;7.10;6.50;;;23.90;99.00;;;;;;5030951;28;20526;-65
2023/09/08 09:47:11;;;;;;;6.00;5.50;;;23.90;98.80;;;;;;5031123;28;20531;-65
2023/09/08 09:49:43;;;;;;;5.90;5.50;;;24.00;97.30;;;;;;5030930;28;20469;-65
2023/09/08 09:52:12;;;;;;;6.27;5.67;;;24.10;97.90;;;;;;5030525;28;20564;-65
2023/09/08 09:54:38;;;;;;;6.87;6.37;;;24.20;97.30;;;;;;5030725;28;20447;-65
2023/09/08 09:57:06;;;;;;;7.13;6.63;;;24.40;98.20;;;;;;5030577;28;21022;-65
2023/09/08 09:59:33;;;;;;;6.77;5.97;;;24.50;98.70;;;;;;5031004;28;20858;-65
2023/09/08 10:02:02;;;;;;;8.00;6.00;;;24.60;98.70;;;;;;5030661;28;20470;-65
2023/09/08 10:04:30;;;;;;;6.23;5.73;;;24.70;98.80;;;;;;5030310;28;20458;-65
2023/09/08 10:06:58;;;;;;;5.70;5.30;;;24.80;97.50;;;;;;5030776;28;20452;-66
2023/09/08 10:09:25;;;;;;;6.50;6.00;;;24.80;97.10;;;;;;5030590;28;20533;-65
2023/09/08 10:11:55;;;;;;;6.30;5.90;;;24.90;97.80;;;;;;5030759;28;20813;-65
2023/09/08 10:14:24;;;;;;;6.40;5.60;;;25.00;96.90;;;;;;5030519;28;20828;-65
2023/09/08 10:16:55;;;;;;;10.83;6.43;;;25.00;96.60;;;;;;5030495;28;20490;-65
2023/09/08 10:19:24;;;;;;;8.20;7.40;;;25.10;96.40;;;;;;5030727;28;20449;-65
2023/09/08 10:21:52;;;;;;;6.30;5.80;;;25.20;96.60;;;;;;5030497;28;20473;-65
2023/09/08 10:24:23;;;;;;;7.50;6.80;;;25.30;95.80;;;;;;5033289;28;20459;-65
2023/09/08 10:26:57;;;;;;;7.00;6.33;;;25.30;95.20;;;;;;5034442;28;20945;-65
2023/09/08 10:29:25;;;;;;;6.50;6.00;;;25.40;95.20;;;;;;5034325;28;20444;-65
2023/09/08 10:31:52;;;;;;;6.57;6.07;;;25.40;95.20;;;;;;5034436;28;20474;-66
2023/09/08 10:34:20;;;;;;;7.43;6.80;;;25.50;94.20;;;;;;5034162;28;20538;-65
2023/09/08 10:36:48;;;;;;;6.60;6.10;;;25.60;94.70;;;;;;5034143;28;21015;-65
2023/09/08 10:39:35;;;;;;;6.97;6.47;;;25.70;94.50;;;;;;5034216;28;20553;-65
2023/09/08 10:42:22;;;;;;;7.03;5.90;;;25.80;94.60;;;;;;5033874;28;20473;-65
2023/09/08 10:45:03;;;;;;;6.37;5.77;;;25.80;94.20;;;;;;5033981;28;20453;-65
2023/09/08 10:47:34;;;;;;;6.33;5.83;;;25.90;94.40;;;;;;5034263;28;20509;-65
2023/09/08 10:50:01;;;;;;;6.73;6.13;;;26.00;94.50;;;;;;5034074;28;20547;-66
2023/09/08 10:52:29;;;;;;;6.27;5.50;;;26.10;93.70;;;;;;5033545;28;20474;-65
2023/09/08 10:54:56;;;;;;;7.00;6.40;;;26.20;92.30;;;;;;5033628;28;20506;-65
2023/09/08 10:57:26;;;;;;;6.93;6.40;;;26.20;92.90;;;;;;5033639;28;20579;-65
2023/09/08 10:59:54;;;;;;;6.83;6.33;;;26.30;92.30;;;;;;5033977;28;20900;-66
2023/09/08 11:02:36;;;;;;;6.90;6.40;;;26.30;93.00;;;;;;5033500;28;20473;-65
2023/09/08 11:05:04;;;;;;;6.30;5.70;;;26.40;93.30;;;;;;5030600;28;21181;-65
2023/09/08 11:07:33;;;;;;;7.23;6.77;;;26.50;93.60;;;;;;5033818;28;20452;-65
2023/09/08 11:10:01;;;;;;;7.87;6.90;;;26.60;92.20;;;;;;5033635;28;20535;-65
2023/09/08 11:12:28;;;;;;;7.17;6.47;;;26.60;92.80;;;;;;5033384;28;20505;-65
2023/09/08 11:14:55;;;;;;;6.63;6.13;;;26.70;92.40;;;;;;5033188;28;20445;-65
2023/09/08 11:17:25;;;;;;;6.40;5.90;;;26.80;91.90;;;;;;5033679;28;20830;-65
2023/09/08 11:19:53;;;;;;;5.90;5.50;;;26.90;92.00;;;;;;5033574;28;20446;-65
2023/09/08 11:22:23;;;;;;;6.07;5.57;;;27.00;91.50;;;;;;5033248;28;21019;-65
2023/09/08 11:24:52;;;;;;;6.00;5.60;;;27.10;91.20;;;;;;5033045;28;20816;-65
2023/09/08 11:27:19;;;;;;;5.70;5.20;;;27.20;90.80;;;;;;5033395;28;20524;-66
2023/09/08 11:29:46;;;;;;;6.23;5.67;;;27.20;90.60;;;;;;5033172;28;20455;-66
2023/09/08 11:32:13;;;;;;;7.77;7.17;;;27.30;90.60;;;;;;5033223;28;20557;-65
2023/09/08 11:34:41;;;;;;;6.37;5.87;;;27.40;87.90;;;;;;5032192;28;20452;-65
2023/09/08 11:37:10;;;;;;;5.60;5.20;;;27.50;87.50;;;;;;5032778;28;20499;-66
2023/09/08 11:39:39;;;;;;;5.27;4.90;;;27.60;85.80;;;;;;5032924;28;20459;-66
2023/09/08 11:42:08;;;;;;;5.43;5.00;;;27.70;86.80;;;;;;5032754;28;21074;-65
2023/09/08 11:44:36;;;;;;;5.73;5.23;;;27.80;83.90;;;;;;5032453;28;20453;-65
2023/09/08 11:47:04;;;;;;;6.07;5.57;;;27.90;86.30;;;;;;5032843;28;20988;-66
2023/09/08 11:49:35;;;;;;;5.50;5.10;;;28.00;88.40;;;;;;5033128;28;20453;-66
2023/09/08 11:52:03;;;;;;;5.33;4.73;;;28.20;84.30;;;;;;5032600;28;20855;-65
2023/09/08 11:54:31;;;;;;;4.93;4.53;;;28.30;83.60;;;;;;5032326;28;20456;-66
2023/09/08 11:56:59;;;;;;;5.53;5.03;;;28.30;83.30;;;;;;5032558;28;20522;-66
2023/09/08 11:59:28;;;;;;;4.17;3.87;;;28.50;82.50;;;;;;5032352;28;20456;-66
2023/09/08 12:01:56;;;;;;;6.00;5.50;;;28.60;81.40;;;;;;5032551;28;20479;-66
2023/09/08 12:04:23;;;;;;;5.90;5.40;;;28.60;80.00;;;;;;5032442;28;20544;-66
2023/09/08 12:06:52;;;;;;;6.57;6.03;;;28.70;78.60;;;;;;5032487;28;20814;-66
2023/09/08 12:09:19;;;;;;;5.27;4.77;;;28.80;76.40;;;;;;5032399;28;20452;-66
2023/09/08 12:11:46;;;;;;;4.60;4.27;;;29.00;79.10;;;;;;5032200;28;20504;-66
2023/09/08 12:14:14;;;;;;;5.50;5.20;;;29.10;76.10;;;;;;5032389;28;20524;-66
2023/09/08 12:16:43;;;;;;;5.80;5.03;;;29.20;75.30;;;;;;5032152;28;20523;-66
2023/09/08 12:19:28;;;;;;;6.30;5.83;;;29.30;77.00;;;;;;5032209;28;20528;-66
2023/09/08 12:21:57;;;;;;;4.40;4.00;;;29.40;76.60;;;;;;5029719;28;20467;-66
2023/09/08 12:24:48;;;;;;;5.20;4.80;;;29.60;74.70;;;;;;5031965;28;20524;-66
2023/09/08 12:27:16;;;;;;;4.90;4.57;;;29.70;73.70;;;;;;5031964;28;20444;-66
2023/09/08 12:29:43;;;;;;;4.47;4.20;;;29.90;73.70;;;;;;5031922;28;20528;-65
2023/09/08 12:32:17;;;;;;;4.73;4.40;;;30.00;74.20;;;;;;5031613;28;20459;-65
2023/09/08 12:34:44;;;;;;;4.57;4.17;;;30.20;72.90;;;;;;5031445;28;20850;-66
2023/09/08 12:37:12;;;;;;;5.47;4.97;;;30.30;70.90;;;;;;5031723;28;20590;-66
2023/09/08 12:39:39;;;;;;;5.50;5.00;;;30.50;70.20;;;;;;5031704;28;20449;-66
2023/09/08 12:42:06;;;;;;;4.73;4.43;;;30.60;68.90;;;;;;5031515;28;20653;-66
2023/09/08 12:44:33;;;;;;;6.10;5.63;;;30.80;71.70;;;;;;5031339;28;20442;-66
2023/09/08 12:47:00;;;;;;;5.30;4.90;;;31.10;69.60;;;;;;5031256;28;20451;-66
2023/09/08 12:49:28;;;;;;;4.50;4.20;;;31.20;67.40;;;;;;5031816;28;20804;-66
2023/09/08 12:51:55;;;;;;;5.00;4.70;;;31.40;64.10;;;;;;5030963;28;20478;-66